Time;durP1;ratioP1;P1;durP2;ratioP2;P2;SDS_P1;SDS_P2;PMS_P1;PMS_P2;Temp;Humidity;BMP_temperature;BMP_pressure;BME280_temperature;BME280_humidity;BME280_pressure;Samples;Min_cycle;Max_cycle;Signal;HPM_P1;HPM_P2
2023/03/16 00:00:48;;;;;;;41.00;12.60;;;;;;;-128.00;-1.00;-1.00;18460;288;7505227;-34
2023/03/16 00:03:20;;;;;;;15.80;8.10;;;;;;;-128.00;-1.00;-1.00;18462;320;7504872;-34
2023/03/16 00:05:46;;;;;;;30.00;8.40;;;;;;;-128.00;-1.00;-1.00;18463;288;7504440;-33
2023/03/16 00:08:13;;;;;;;28.10;10.20;;;;;;;-128.00;-1.00;-1.00;18519;295;7505732;-31
2023/03/16 00:10:38;;;;;;;23.50;9.80;;;;;;;-128.00;-1.00;-1.00;18492;295;7505796;-33
2023/03/16 00:13:04;;;;;;;25.50;9.60;;;;;;;-128.00;-1.00;-1.00;18872;320;7504396;-30
2023/03/16 00:15:31;;;;;;;23.60;10.90;;;;;;;-128.00;-1.00;-1.00;18867;284;7504311;-33
2023/03/16 00:17:57;;;;;;;40.70;10.90;;;;;;;-128.00;-1.00;-1.00;18872;295;7505339;-33
2023/03/16 00:20:23;;;;;;;26.20;10.10;;;;;;;-128.00;-1.00;-1.00;18867;297;7505254;-33
2023/03/16 00:22:50;;;;;;;22.40;10.50;;;;;;;-128.00;-1.00;-1.00;18872;295;7504749;-33
2023/03/16 00:25:16;;;;;;;38.40;10.70;;;;;;;-128.00;-1.00;-1.00;18914;288;7504791;-32
2023/03/16 00:27:42;;;;;;;16.80;8.30;;;;;;;-128.00;-1.00;-1.00;18884;296;7504109;-30
2023/03/16 00:30:10;;;;;;;26.20;10.60;;;;;;;-128.00;-1.00;-1.00;18853;320;7505367;-30
2023/03/16 00:32:36;;;;;;;18.20;6.00;;;;;;;-128.00;-1.00;-1.00;18441;296;7505962;-29
2023/03/16 00:35:02;;;;;;;20.50;7.70;;;;;;;-128.00;-1.00;-1.00;18490;295;7504913;-29
2023/03/16 00:37:28;;;;;;;30.00;9.50;;;;;;;-128.00;-1.00;-1.00;18485;289;7505041;-42
2023/03/16 00:39:57;;;;;;;16.10;8.40;;;;;;;-128.00;-1.00;-1.00;18484;348;7505267;-30
2023/03/16 00:42:26;;;;;;;22.70;9.90;;;;;;;-128.00;-1.00;-1.00;18490;288;7505744;-30
2023/03/16 00:44:56;;;;;;;29.80;8.60;;;;;;;-128.00;-1.00;-1.00;18470;303;7504978;-30
2023/03/16 00:47:27;;;;;;;20.70;8.50;;;;;;;-128.00;-1.00;-1.00;18492;295;7504381;-30
2023/03/16 00:49:53;;;;;;;13.80;5.00;;;;;;;-128.00;-1.00;-1.00;18495;295;7505133;-28
2023/03/16 00:52:19;;;;;;;21.80;8.70;;;;;;;-128.00;-1.00;-1.00;18464;295;7504492;-32
2023/03/16 00:54:45;;;;;;;15.90;5.00;;;;;;;-128.00;-1.00;-1.00;18455;303;7504256;-29
2023/03/16 00:57:12;;;;;;;11.40;3.50;;;;;;;-128.00;-1.00;-1.00;18485;288;7506390;-30
2023/03/16 00:59:39;;;;;;;13.80;3.90;;;;;;;-128.00;-1.00;-1.00;18461;348;7504372;-33
2023/03/16 01:02:06;;;;;;;15.00;8.30;;;;;;;-128.00;-1.00;-1.00;18446;285;7504616;-33
2023/03/16 01:04:33;;;;;;;34.90;8.50;;;;;;;-128.00;-1.00;-1.00;18478;284;7504271;-32
2023/03/16 01:06:59;;;;;;;21.20;9.30;;;;;;;-128.00;-1.00;-1.00;18481;331;7505207;-32
2023/03/16 01:09:24;;;;;;;5.40;4.80;;;;;;;-128.00;-1.00;-1.00;18466;288;7504147;-33
2023/03/16 01:11:53;;;;;;;17.80;8.10;;;;;;;-128.00;-1.00;-1.00;18476;295;7504809;-30
2023/03/16 01:14:20;;;;;;;23.60;10.90;;;;;;;-128.00;-1.00;-1.00;18472;295;7504757;-30
2023/03/16 01:16:45;;;;;;;20.70;7.40;;;;;;;-128.00;-1.00;-1.00;18464;295;7506170;-29
2023/03/16 01:19:12;;;;;;;13.70;5.50;;;;;;;-128.00;-1.00;-1.00;18503;295;7504936;-30
2023/03/16 01:21:41;;;;;;;15.80;4.60;;;;;;;-128.00;-1.00;-1.00;18497;295;7504954;-29
2023/03/16 01:24:08;;;;;;;21.10;8.60;;;;;;;-128.00;-1.00;-1.00;18468;295;7504674;-29
2023/03/16 01:26:34;;;;;;;7.60;4.20;;;;;;;-128.00;-1.00;-1.00;18481;295;7505975;-29
2023/03/16 01:29:01;;;;;;;2.30;1.70;;;;;;;-128.00;-1.00;-1.00;18477;295;7504580;-32
2023/03/16 01:31:28;;;;;;;25.00;9.70;;;;;;;-128.00;-1.00;-1.00;18453;297;7506038;-30
2023/03/16 01:33:54;;;;;;;36.40;10.00;;;;;;;-128.00;-1.00;-1.00;18500;295;7506316;-30
2023/03/16 01:36:19;;;;;;;11.80;7.60;;;;;;;-128.00;-1.00;-1.00;18516;295;7505825;-30
2023/03/16 01:38:45;;;;;;;26.70;8.80;;;;;;;-128.00;-1.00;-1.00;18492;296;7506216;-29
2023/03/16 01:41:11;;;;;;;1.70;1.20;;;;;;;-128.00;-1.00;-1.00;18463;307;7506731;-34
2023/03/16 01:43:37;;;;;;;34.00;7.30;;;;;;;-128.00;-1.00;-1.00;18477;284;7504918;-34
2023/03/16 01:46:20;;;;;;;16.60;5.00;;;;;;;-128.00;-1.00;-1.00;18481;289;7504543;-30
2023/03/16 01:49:01;;;;;;;10.10;5.70;;;;;;;-128.00;-1.00;-1.00;18480;288;7504411;-31
2023/03/16 01:51:32;;;;;;;5.60;3.50;;;;;;;-128.00;-1.00;-1.00;18471;297;7504536;-31
2023/03/16 01:54:06;;;;;;;7.90;4.30;;;;;;;-128.00;-1.00;-1.00;18468;295;7504357;-29
2023/03/16 01:56:39;;;;;;;32.10;11.50;;;;;;;-128.00;-1.00;-1.00;18445;297;7505273;-29
2023/03/16 01:59:08;;;;;;;13.00;5.90;;;;;;;-128.00;-1.00;-1.00;18504;295;7506156;-29
2023/03/16 02:01:33;;;;;;;20.00;7.40;;;;;;;-128.00;-1.00;-1.00;18506;295;7504575;-35
2023/03/16 02:04:28;;;;;;;9.50;3.10;;;;;;;-128.00;-1.00;-1.00;18463;295;7505633;-31
2023/03/16 02:06:54;;;;;;;29.70;10.40;;;;;;;-128.00;-1.00;-1.00;18493;288;7506199;-33
2023/03/16 02:09:21;;;;;;;26.40;9.50;;;;;;;-128.00;-1.00;-1.00;18466;295;7504629;-34
2023/03/16 02:11:46;;;;;;;22.70;11.10;;;;;;;-128.00;-1.00;-1.00;18493;288;7505120;-34
2023/03/16 02:14:13;;;;;;;12.90;5.80;;;;;;;-128.00;-1.00;-1.00;18903;295;7505443;-30
2023/03/16 02:16:39;;;;;;;41.90;10.40;;;;;;;-128.00;-1.00;-1.00;18875;284;7505037;-33
2023/03/16 02:19:08;;;;;;;40.50;12.60;;;;;;;-128.00;-1.00;-1.00;18891;295;7505962;-33
2023/03/16 02:21:53;;;;;;;30.50;9.40;;;;;;;-128.00;-1.00;-1.00;18459;295;7504939;-34
2023/03/16 02:24:20;;;;;;;29.00;11.70;;;;;;;-128.00;-1.00;-1.00;18463;296;7507216;-30
2023/03/16 02:27:00;;;;;;;27.70;10.70;;;;;;;-128.00;-1.00;-1.00;18478;288;7505365;-30
2023/03/16 02:29:49;;;;;;;25.20;9.70;;;;;;;-128.00;-1.00;-1.00;18459;296;7504707;-30
2023/03/16 02:32:15;;;;;;;25.80;10.80;;;;;;;-128.00;-1.00;-1.00;18482;288;7504741;-32
2023/03/16 02:34:40;;;;;;;17.40;9.60;;;;;;;-128.00;-1.00;-1.00;18470;347;7504493;-29
2023/03/16 02:37:06;;;;;;;21.90;9.90;;;;;;;-128.00;-1.00;-1.00;18497;288;7505450;-33
2023/03/16 02:39:33;;;;;;;29.00;12.40;;;;;;;-128.00;-1.00;-1.00;18490;295;7505610;-33
2023/03/16 02:41:59;;;;;;;21.40;10.10;;;;;;;-128.00;-1.00;-1.00;18470;295;7506420;-30
2023/03/16 02:44:27;;;;;;;26.30;7.20;;;;;;;-128.00;-1.00;-1.00;18460;295;7505370;-32
2023/03/16 02:46:55;;;;;;;17.40;7.90;;;;;;;-128.00;-1.00;-1.00;18477;295;7505592;-34
2023/03/16 02:49:35;;;;;;;10.30;4.40;;;;;;;-128.00;-1.00;-1.00;18475;295;7505450;-30
2023/03/16 02:52:02;;;;;;;18.80;11.20;;;;;;;-128.00;-1.00;-1.00;18486;335;7505731;-34
2023/03/16 02:54:28;;;;;;;22.70;8.90;;;;;;;-128.00;-1.00;-1.00;18495;288;7505864;-29
2023/03/16 02:56:53;;;;;;;15.60;7.90;;;;;;;-128.00;-1.00;-1.00;18484;295;7506544;-29
2023/03/16 02:59:19;;;;;;;13.80;7.60;;;;;;;-128.00;-1.00;-1.00;18455;288;7504277;-30
2023/03/16 03:01:45;;;;;;;26.00;10.30;;;;;;;-128.00;-1.00;-1.00;18479;288;7504325;-29
2023/03/16 03:04:12;;;;;;;31.20;11.90;;;;;;;-128.00;-1.00;-1.00;18864;344;7504893;-30
2023/03/16 03:06:38;;;;;;;12.20;5.20;;;;;;;-128.00;-1.00;-1.00;18886;295;7504727;-33
2023/03/16 03:09:05;;;;;;;17.90;9.30;;;;;;;-128.00;-1.00;-1.00;18889;295;7504940;-30
2023/03/16 03:11:31;;;;;;;22.00;9.40;;;;;;;-128.00;-1.00;-1.00;18873;295;7504264;-31
2023/03/16 03:13:57;;;;;;;18.30;7.40;;;;;;;-128.00;-1.00;-1.00;18867;295;7504392;-29
2023/03/16 03:16:23;;;;;;;24.90;9.50;;;;;;;-128.00;-1.00;-1.00;18867;307;7504525;-33
2023/03/16 03:18:51;;;;;;;31.50;13.90;;;;;;;-128.00;-1.00;-1.00;18850;337;7504524;-29
2023/03/16 03:21:17;;;;;;;32.20;12.90;;;;;;;-128.00;-1.00;-1.00;18458;295;7504370;-29
2023/03/16 03:23:45;;;;;;;34.60;12.50;;;;;;;-128.00;-1.00;-1.00;18453;299;7505608;-33
2023/03/16 03:26:13;;;;;;;27.20;9.60;;;;;;;-128.00;-1.00;-1.00;18441;295;7507085;-32
2023/03/16 03:28:39;;;;;;;14.60;7.00;;;;;;;-128.00;-1.00;-1.00;18462;295;7504324;-30
2023/03/16 03:31:06;;;;;;;11.50;5.50;;;;;;;-128.00;-1.00;-1.00;18467;288;7505601;-28
2023/03/16 03:33:32;;;;;;;22.20;9.90;;;;;;;-128.00;-1.00;-1.00;18448;296;7507169;-29
2023/03/16 03:35:58;;;;;;;23.60;11.20;;;;;;;-128.00;-1.00;-1.00;18471;295;7504632;-34
2023/03/16 03:38:24;;;;;;;33.10;6.40;;;;;;;-128.00;-1.00;-1.00;18470;288;7504256;-32
2023/03/16 03:40:51;;;;;;;32.80;5.30;;;;;;;-128.00;-1.00;-1.00;18496;295;7504708;-29
2023/03/16 03:43:16;;;;;;;26.20;10.00;;;;;;;-128.00;-1.00;-1.00;18455;295;7504479;-29
2023/03/16 03:45:42;;;;;;;9.80;4.70;;;;;;;-128.00;-1.00;-1.00;18480;305;7506024;-34
2023/03/16 03:48:07;;;;;;;23.80;10.90;;;;;;;-128.00;-1.00;-1.00;18478;295;7504667;-30
2023/03/16 03:50:34;;;;;;;13.00;5.50;;;;;;;-128.00;-1.00;-1.00;18888;288;7506330;-31
2023/03/16 03:53:00;;;;;;;17.70;8.50;;;;;;;-128.00;-1.00;-1.00;18843;347;7504820;-30
2023/03/16 03:55:26;;;;;;;7.80;5.40;;;;;;;-128.00;-1.00;-1.00;18865;288;7504700;-29
2023/03/16 03:57:52;;;;;;;8.70;5.10;;;;;;;-128.00;-1.00;-1.00;18906;295;7504569;-33
2023/03/16 04:00:19;;;;;;;25.80;7.60;;;;;;;-128.00;-1.00;-1.00;18473;295;7505055;-30
2023/03/16 04:02:46;;;;;;;7.70;5.00;;;;;;;-128.00;-1.00;-1.00;18462;295;7504747;-33
2023/03/16 04:05:11;;;;;;;9.90;5.60;;;;;;;-128.00;-1.00;-1.00;18511;288;7504116;-34
2023/03/16 04:07:37;;;;;;;38.00;10.40;;;;;;;-128.00;-1.00;-1.00;18490;295;7504324;-33
2023/03/16 04:10:04;;;;;;;15.00;6.20;;;;;;;-128.00;-1.00;-1.00;18500;335;7504217;-33
2023/03/16 04:12:30;;;;;;;9.20;5.40;;;;;;;-128.00;-1.00;-1.00;18483;295;7504400;-34
2023/03/16 04:14:56;;;;;;;38.00;14.70;;;;;;;-128.00;-1.00;-1.00;18855;296;7504846;-33
2023/03/16 04:17:23;;;;;;;28.90;13.00;;;;;;;-128.00;-1.00;-1.00;18882;288;7504748;-33
2023/03/16 04:19:49;;;;;;;29.30;13.00;;;;;;;-128.00;-1.00;-1.00;18489;347;7504512;-33
2023/03/16 04:22:15;;;;;;;30.70;11.70;;;;;;;-128.00;-1.00;-1.00;18473;295;7504355;-33
2023/03/16 04:24:42;;;;;;;27.40;13.00;;;;;;;-128.00;-1.00;-1.00;18470;295;7504823;-29
2023/03/16 04:27:10;;;;;;;26.20;11.80;;;;;;;-128.00;-1.00;-1.00;18506;288;7505110;-30
2023/03/16 04:29:35;;;;;;;24.40;11.90;;;;;;;-128.00;-1.00;-1.00;18503;288;7506748;-30
2023/03/16 04:32:01;;;;;;;28.50;13.10;;;;;;;-128.00;-1.00;-1.00;18475;295;7504748;-30
2023/03/16 04:34:27;;;;;;;21.40;9.60;;;;;;;-128.00;-1.00;-1.00;18482;303;7506024;-33
2023/03/16 05:16:37;;;;;;;44.00;11.10;;;;;;;-103.28;19.20;19981.23;28024;295;7504280;-34
2023/03/16 05:19:04;;;;;;;38.90;10.20;;;;;;;-128.00;-1.00;-1.00;18220;344;7504960;-32
2023/03/16 05:21:30;;;;;;;28.60;8.70;;;;;;;-128.00;-1.00;-1.00;18482;295;7506458;-30
2023/03/16 05:23:56;;;;;;;21.50;8.20;;;;;;;-128.00;-1.00;-1.00;18472;346;7504585;-30
2023/03/16 05:26:24;;;;;;;24.30;9.40;;;;;;;-128.00;-1.00;-1.00;18502;294;7505627;-33
2023/03/16 05:28:50;;;;;;;18.60;6.70;;;;;;;-128.00;-1.00;-1.00;18445;294;7504966;-29
2023/03/16 05:31:17;;;;;;;14.50;7.90;;;;;;;-128.00;-1.00;-1.00;18477;294;7505022;-33
2023/03/16 05:33:43;;;;;;;26.80;6.30;;;;;;;-128.00;-1.00;-1.00;18480;294;7505006;-33
2023/03/16 05:36:09;;;;;;;15.50;7.50;;;;;;;-128.00;-1.00;-1.00;18479;294;7505987;-33
2023/03/16 05:38:37;;;;;;;36.50;9.80;;;;;;;-128.00;-1.00;-1.00;18465;335;7506444;-30
2023/03/16 05:41:04;;;;;;;28.90;7.90;;;;;;;-128.00;-1.00;-1.00;18493;294;7505981;-30
2023/03/16 05:43:30;;;;;;;25.40;9.60;;;;;;;-128.00;-1.00;-1.00;18507;295;7504422;-33
2023/03/16 05:45:56;;;;;;;23.00;8.80;;;;;;;-128.00;-1.00;-1.00;18478;310;7506825;-33
2023/03/16 05:48:24;;;;;;;22.20;10.50;;;;;;;-128.00;-1.00;-1.00;18465;295;7506189;-29
2023/03/16 05:50:50;;;;;;;22.00;10.00;;;;;;;-128.00;-1.00;-1.00;18507;347;7505070;-36
2023/03/16 05:53:16;;;;;;;21.00;10.30;;;;;;;-128.00;-1.00;-1.00;18492;286;7504794;-29
2023/03/16 05:55:42;;;;;;;19.00;9.80;;;;;;;-128.00;-1.00;-1.00;18453;339;7505973;-35
2023/03/16 05:58:08;;;;;;;35.30;11.40;;;;;;;-128.00;-1.00;-1.00;18489;294;7504678;-35
2023/03/16 06:00:33;;;;;;;27.00;13.10;;;;;;;-128.00;-1.00;-1.00;18488;294;7505991;-30
2023/03/16 06:03:00;;;;;;;43.80;13.30;;;;;;;-128.00;-1.00;-1.00;18502;294;7505376;-33
2023/03/16 06:05:27;;;;;;;52.20;15.60;;;;;;;-128.00;-1.00;-1.00;18485;294;7504743;-30
2023/03/16 06:07:53;;;;;;;32.40;12.60;;;;;;;-128.00;-1.00;-1.00;18468;347;7506639;-34
2023/03/16 06:10:19;;;;;;;27.90;10.20;;;;;;;-128.00;-1.00;-1.00;18471;318;7505185;-30
2023/03/16 06:12:44;;;;;;;25.20;11.20;;;;;;;-128.00;-1.00;-1.00;18487;282;7505282;-29
2023/03/16 06:15:10;;;;;;;3.90;2.70;;;;;;;-128.00;-1.00;-1.00;18510;302;7504256;-32
2023/03/16 06:17:36;;;;;;;29.50;9.60;;;;;;;-128.00;-1.00;-1.00;18486;288;7504670;-31
2023/03/16 06:20:09;;;;;;;11.00;4.10;;;;;;;-128.00;-1.00;-1.00;18476;288;7504598;-34
2023/03/16 06:22:35;;;;;;;14.80;3.80;;;;;;;-128.00;-1.00;-1.00;18479;346;7504621;-34
2023/03/16 06:25:00;;;;;;;31.50;10.60;;;;;;;-128.00;-1.00;-1.00;18484;294;7505623;-34
2023/03/16 06:27:27;;;;;;;11.80;5.50;;;;;;;-128.00;-1.00;-1.00;18458;294;7504526;-30
2023/03/16 06:29:52;;;;;;;17.20;10.30;;;;;;;-128.00;-1.00;-1.00;18493;294;7504413;-34
2023/03/16 06:32:18;;;;;;;19.10;10.10;;;;;;;-128.00;-1.00;-1.00;18466;294;7504797;-31
2023/03/16 06:34:44;;;;;;;23.70;11.40;;;;;;;-128.00;-1.00;-1.00;18474;347;7504274;-31
2023/03/16 06:37:10;;;;;;;21.70;6.20;;;;;;;-128.00;-1.00;-1.00;18490;294;7506008;-31
2023/03/16 06:39:35;;;;;;;16.60;6.50;;;;;;;-128.00;-1.00;-1.00;18498;347;7504957;-30
2023/03/16 06:42:03;;;;;;;27.30;8.00;;;;;;;-128.00;-1.00;-1.00;18879;294;7504990;-33
2023/03/16 06:44:29;;;;;;;12.40;5.60;;;;;;;-128.00;-1.00;-1.00;18480;294;7506293;-30
2023/03/16 06:46:55;;;;;;;16.30;7.90;;;;;;;-128.00;-1.00;-1.00;18512;295;7506073;-34
2023/03/16 06:49:20;;;;;;;21.00;11.40;;;;;;;-128.00;-1.00;-1.00;18464;294;7504425;-30
2023/03/16 06:51:46;;;;;;;23.70;9.60;;;;;;;-128.00;-1.00;-1.00;18857;294;7504235;-33
2023/03/16 06:54:13;;;;;;;17.90;7.10;;;;;;;-128.00;-1.00;-1.00;18873;294;7504407;-34
2023/03/16 06:56:39;;;;;;;8.00;5.80;;;;;;;-128.00;-1.00;-1.00;18500;288;7505770;-34
2023/03/16 06:59:05;;;;;;;22.30;8.80;;;;;;;-128.00;-1.00;-1.00;18494;294;7505915;-29
2023/03/16 07:01:31;;;;;;;22.40;6.40;;;;;;;-128.00;-1.00;-1.00;18476;294;7504400;-33
2023/03/16 07:03:56;;;;;;;5.70;4.10;;;;;;;-128.00;-1.00;-1.00;18459;294;7504630;-32
2023/03/16 07:06:22;;;;;;;10.60;5.10;;;;;;;-128.00;-1.00;-1.00;18479;295;7504930;-33
2023/03/16 07:08:48;;;;;;;16.60;8.30;;;;;;;-128.00;-1.00;-1.00;18910;334;7504491;-29
2023/03/16 07:11:15;;;;;;;14.90;6.90;;;;;;;-128.00;-1.00;-1.00;18890;319;7504730;-33
2023/03/16 07:13:41;;;;;;;18.70;8.00;;;;;;;-128.00;-1.00;-1.00;18863;294;7506073;-33
2023/03/16 07:16:07;;;;;;;20.10;8.50;;;;;;;-128.00;-1.00;-1.00;18857;341;7505845;-31
2023/03/16 07:18:34;;;;;;;10.10;4.40;;;;;;;-128.00;-1.00;-1.00;18891;294;7504416;-33
2023/03/16 07:21:01;;;;;;;8.20;5.40;;;;;;;-128.00;-1.00;-1.00;18502;295;7505160;-30
2023/03/16 07:23:27;;;;;;;9.10;5.20;;;;;;;-128.00;-1.00;-1.00;18903;294;7505528;-33
2023/03/16 07:25:53;;;;;;;11.50;4.70;;;;;;;-128.00;-1.00;-1.00;18861;294;7505903;-31
2023/03/16 07:28:19;;;;;;;10.10;5.20;;;;;;;-128.00;-1.00;-1.00;18890;294;7504935;-31
2023/03/16 07:30:46;;;;;;;10.20;5.30;;;;;;;-128.00;-1.00;-1.00;18859;294;7504905;-35
2023/03/16 07:33:13;;;;;;;16.70;5.40;;;;;;;-128.00;-1.00;-1.00;18884;294;7505478;-35
2023/03/16 07:35:38;;;;;;;7.20;4.10;;;;;;;-128.00;-1.00;-1.00;18478;294;7504816;-35
2023/03/16 07:38:04;;;;;;;8.50;4.80;;;;;;;-128.00;-1.00;-1.00;18470;294;7504751;-32
2023/03/16 07:40:30;;;;;;;13.90;6.90;;;;;;;-128.00;-1.00;-1.00;18473;294;7504737;-32
2023/03/16 07:42:55;;;;;;;18.60;5.20;;;;;;;-128.00;-1.00;-1.00;18463;294;7504565;-35
2023/03/16 07:45:21;;;;;;;9.60;4.90;;;;;;;-128.00;-1.00;-1.00;18467;318;7505581;-31
2023/03/16 07:47:47;;;;;;;13.10;5.70;;;;;;;-128.00;-1.00;-1.00;18861;287;7505162;-32
2023/03/16 07:50:15;;;;;;;11.40;3.70;;;;;;;-128.00;-1.00;-1.00;18884;294;7505637;-34
2023/03/16 07:52:41;;;;;;;5.00;2.10;;;;;;;-128.00;-1.00;-1.00;18472;294;7504434;-30
2023/03/16 07:55:07;;;;;;;6.30;4.00;;;;;;;-128.00;-1.00;-1.00;18467;346;7506906;-36
2023/03/16 07:57:33;;;;;;;5.80;3.20;;;;;;;-128.00;-1.00;-1.00;18486;347;7506185;-32
2023/03/16 07:59:58;;;;;;;17.20;6.00;;;;;;;-128.00;-1.00;-1.00;18454;288;7504331;-35
2023/03/16 08:02:24;;;;;;;11.80;5.80;;;;;;;-128.00;-1.00;-1.00;18487;294;7504368;-32
2023/03/16 08:04:50;;;;;;;7.40;3.80;;;;;;;-128.00;-1.00;-1.00;18495;294;7506068;-35
2023/03/16 08:07:17;;;;;;;16.60;5.60;;;;;;;-128.00;-1.00;-1.00;18914;294;7504444;-34
2023/03/16 08:09:43;;;;;;;14.20;4.80;;;;;;;-128.00;-1.00;-1.00;18869;294;7504891;-33
2023/03/16 08:12:10;;;;;;;14.90;5.90;;;;;;;-128.00;-1.00;-1.00;18894;295;7506808;-32
2023/03/16 08:14:36;;;;;;;10.00;3.70;;;;;;;-128.00;-1.00;-1.00;18501;294;7505045;-35
2023/03/16 08:17:03;;;;;;;5.20;3.70;;;;;;;-128.00;-1.00;-1.00;18487;314;7506049;-32
2023/03/16 08:19:28;;;;;;;6.90;4.20;;;;;;;-128.00;-1.00;-1.00;18459;296;7504407;-32
2023/03/16 08:21:55;;;;;;;6.40;3.30;;;;;;;-128.00;-1.00;-1.00;18496;336;7504683;-31
2023/03/16 08:24:20;;;;;;;10.10;4.70;;;;;;;-128.00;-1.00;-1.00;18497;294;7504574;-31
2023/03/16 08:26:46;;;;;;;11.00;7.90;;;;;;;-128.00;-1.00;-1.00;18476;294;7504319;-32
2023/03/16 08:29:12;;;;;;;4.70;2.60;;;;;;;-128.00;-1.00;-1.00;18475;347;7504526;-32
2023/03/16 08:31:38;;;;;;;15.40;4.00;;;;;;;-128.00;-1.00;-1.00;18468;294;7504234;-35
2023/03/16 08:34:04;;;;;;;5.80;3.20;;;;;;;-128.00;-1.00;-1.00;18472;294;7505904;-35
2023/03/16 08:36:29;;;;;;;9.80;2.70;;;;;;;-128.00;-1.00;-1.00;18484;294;7504394;-31
2023/03/16 08:38:55;;;;;;;5.70;2.80;;;;;;;-128.00;-1.00;-1.00;18467;346;7504336;-34
2023/03/16 08:41:21;;;;;;;19.00;7.10;;;;;;;-128.00;-1.00;-1.00;18487;319;7506019;-31
2023/03/16 08:43:46;;;;;;;16.80;2.20;;;;;;;-128.00;-1.00;-1.00;18481;346;7504566;-31
2023/03/16 08:46:12;;;;;;;15.90;3.80;;;;;;;-128.00;-1.00;-1.00;18478;319;7504343;-34
2023/03/16 08:48:40;;;;;;;5.30;2.90;;;;;;;-128.00;-1.00;-1.00;18478;295;7504817;-32
2023/03/16 08:51:06;;;;;;;14.40;3.50;;;;;;;-128.00;-1.00;-1.00;18509;295;7506020;-31
2023/03/16 08:53:32;;;;;;;15.20;3.50;;;;;;;-128.00;-1.00;-1.00;18469;294;7504320;-34
2023/03/16 08:56:05;;;;;;;9.30;3.10;;;;;;;-128.00;-1.00;-1.00;18495;294;7506291;-37
2023/03/16 08:58:32;;;;;;;10.90;4.60;;;;;;;-128.00;-1.00;-1.00;18506;295;7504441;-35
2023/03/16 09:00:59;;;;;;;68.30;18.60;;;;;;;-128.00;-1.00;-1.00;18462;347;7504901;-32
2023/03/16 09:03:26;;;;;;;28.70;10.80;;;;;;;-128.00;-1.00;-1.00;18495;294;7506046;-32
2023/03/16 09:05:53;;;;;;;16.80;4.80;;;;;;;-128.00;-1.00;-1.00;18443;294;7504477;-31
2023/03/16 09:08:19;;;;;;;1.70;0.60;;;;;;;-128.00;-1.00;-1.00;18476;294;7504261;-34
2023/03/16 09:10:45;;;;;;;6.00;2.60;;;;;;;-128.00;-1.00;-1.00;18472;294;7504169;-32
2023/03/16 09:13:11;;;;;;;8.10;3.00;;;;;;;-128.00;-1.00;-1.00;18476;295;7506220;-32
2023/03/16 09:15:37;;;;;;;4.60;1.50;;;;;;;-128.00;-1.00;-1.00;18462;294;7505402;-35
2023/03/16 09:18:04;;;;;;;8.40;2.40;;;;;;;-128.00;-1.00;-1.00;18469;346;7505232;-30
2023/03/16 09:20:30;;;;;;;10.30;2.10;;;;;;;-128.00;-1.00;-1.00;18471;288;7506124;-31
2023/03/16 09:22:57;;;;;;;8.00;1.70;;;;;;;-128.00;-1.00;-1.00;18503;295;7505915;-31
2023/03/16 09:25:24;;;;;;;12.20;1.70;;;;;;;-128.00;-1.00;-1.00;18463;347;7505027;-34
2023/03/16 09:27:50;;;;;;;15.20;2.30;;;;;;;-128.00;-1.00;-1.00;18458;294;7504486;-32
2023/03/16 09:30:16;;;;;;;5.60;1.10;;;;;;;-128.00;-1.00;-1.00;18475;294;7504672;-32
2023/03/16 09:32:41;;;;;;;5.70;1.00;;;;;;;-128.00;-1.00;-1.00;18501;295;7504517;-34
2023/03/16 09:35:07;;;;;;;3.10;1.00;;;;;;;-128.00;-1.00;-1.00;18487;294;7506260;-32
2023/03/16 09:37:33;;;;;;;8.10;1.90;;;;;;;-128.00;-1.00;-1.00;18490;294;7504200;-35
2023/03/16 09:40:00;;;;;;;8.60;2.10;;;;;;;-128.00;-1.00;-1.00;18885;294;7505002;-35
2023/03/16 09:42:39;;;;;;;3.20;1.10;;;;;;;-128.00;-1.00;-1.00;18505;295;7504726;-33
2023/03/16 09:45:19;;;;;;;23.00;2.40;;;;;;;-128.00;-1.00;-1.00;18474;339;7504903;-31
2023/03/16 09:47:45;;;;;;;3.30;1.30;;;;;;;-128.00;-1.00;-1.00;18471;294;7504492;-32
2023/03/16 09:50:22;;;;;;;5.90;2.20;;;;;;;-128.00;-1.00;-1.00;18472;335;7505958;-31
2023/03/16 09:53:08;;;;;;;1.50;0.60;;;;;;;-128.00;-1.00;-1.00;18500;294;7504723;-31
2023/03/16 09:55:36;;;;;;;3.00;1.50;;;;;;;-128.00;-1.00;-1.00;18475;294;7504282;-30
2023/03/16 09:58:11;;;;;;;4.90;1.00;;;;;;;-128.00;-1.00;-1.00;18491;294;7504331;-31
2023/03/16 10:00:40;;;;;;;7.90;1.70;;;;;;;-128.00;-1.00;-1.00;18493;294;7504279;-33
2023/03/16 10:03:25;;;;;;;14.80;1.80;;;;;;;-128.00;-1.00;-1.00;18494;294;7505139;-32
2023/03/16 10:05:55;;;;;;;6.80;1.90;;;;;;;-128.00;-1.00;-1.00;18503;294;7504235;-32
2023/03/16 10:08:23;;;;;;;6.80;1.70;;;;;;;-128.00;-1.00;-1.00;18460;294;7506060;-35
2023/03/16 10:11:05;;;;;;;9.90;1.40;;;;;;;-128.00;-1.00;-1.00;18452;295;7506176;-35
2023/03/16 10:13:46;;;;;;;4.90;1.80;;;;;;;-128.00;-1.00;-1.00;18454;288;7505626;-35
2023/03/16 10:16:27;;;;;;;3.10;0.90;;;;;;;-128.00;-1.00;-1.00;18487;294;7505760;-32
2023/03/16 10:19:01;;;;;;;4.10;1.20;;;;;;;-128.00;-1.00;-1.00;18495;294;7504484;-36
2023/03/16 10:21:26;;;;;;;2.50;0.90;;;;;;;-128.00;-1.00;-1.00;18451;294;7504356;-35
2023/03/16 10:23:53;;;;;;;4.00;1.50;;;;;;;-128.00;-1.00;-1.00;18493;335;7504342;-34
2023/03/16 10:26:30;;;;;;;6.20;1.10;;;;;;;-128.00;-1.00;-1.00;18483;294;7505896;-32
2023/03/16 10:28:56;;;;;;;8.50;1.10;;;;;;;-128.00;-1.00;-1.00;18494;295;7505060;-35
2023/03/16 10:31:22;;;;;;;2.40;1.00;;;;;;;-128.00;-1.00;-1.00;18484;294;7504799;-32
2023/03/16 10:33:49;;;;;;;5.60;1.80;;;;;;;-128.00;-1.00;-1.00;18469;294;7504332;-36
2023/03/16 10:36:24;;;;;;;3.90;1.30;;;;;;;-128.00;-1.00;-1.00;18477;345;7504922;-35
2023/03/16 10:38:56;;;;;;;8.90;1.40;;;;;;;-128.00;-1.00;-1.00;18481;294;7504109;-31
2023/03/16 10:41:36;;;;;;;12.40;1.00;;;;;;;-128.00;-1.00;-1.00;18490;294;7505123;-31
2023/03/16 10:44:15;;;;;;;2.70;1.00;;;;;;;-128.00;-1.00;-1.00;18494;306;7505201;-36
2023/03/16 10:46:47;;;;;;;1.90;1.00;;;;;;;-128.00;-1.00;-1.00;18520;295;7507162;-32
2023/03/16 10:52:42;;;;;;;2.50;1.10;;;;;;;;;;100943;296;542824;-34
2023/03/16 10:55:14;;;;;;;5.50;2.00;;;;;;;;;;100999;301;25418;-34
2023/03/16 10:57:41;;;;;;;5.40;1.10;;;;;;;;;;101016;301;22584;-34
2023/03/16 11:00:12;;;;;;;3.30;1.00;;;;;;;;;;101095;301;22819;-32
2023/03/16 11:02:39;;;;;;;4.50;1.20;;;;;;;;;;101142;301;22614;-31
2023/03/16 11:46:11;;;;;;;1.60;0.50;;;;;;;-100.90;7.23;20010.45;41641;296;8044515;-32
2023/03/16 11:48:55;;;;;;;1.40;0.60;;;;;;;-128.00;-1.00;-1.00;93471;296;3003109;-35
2023/03/16 11:51:35;;;;;;;3.70;0.80;;;;;;;-128.00;-1.00;-1.00;86179;295;3003288;-34
2023/03/16 11:54:27;;;;;;;7.50;1.30;;;;;;;-128.00;-1.00;-1.00;81901;295;3003359;-35
2023/03/16 11:56:57;;;;;;;9.20;1.30;;;;;;;-128.00;-1.00;-1.00;20614;336;7504270;-35
2023/03/16 11:59:47;;;;;;;1.70;0.70;;;;;;;-128.00;-1.00;-1.00;18522;295;7505936;-36
2023/03/16 12:02:37;;;;;;;1.00;0.70;;;;;;;-128.00;-1.00;-1.00;18476;336;7504522;-31
2023/03/16 12:05:22;;;;;;;1.50;0.70;;;;;;;-128.00;-1.00;-1.00;18488;295;7505553;-35
2023/03/16 12:08:03;;;;;;;5.40;1.10;;;;;;;-128.00;-1.00;-1.00;18476;297;7504983;-34
2023/03/16 12:10:35;;;;;;;3.50;1.10;;;;;;;-128.00;-1.00;-1.00;18469;298;7504838;-31
2023/03/16 12:13:13;;;;;;;;;;;;;;;-128.00;-1.00;-1.00;18532;295;7505038;-31
2023/03/16 12:15:43;;;;;;;5.80;0.80;;;;;;;-128.00;-1.00;-1.00;18497;295;7506293;-35
2023/03/16 12:18:14;;;;;;;5.70;1.30;;;;;;;-128.00;-1.00;-1.00;18501;347;7506187;-34
2023/03/16 12:20:46;;;;;;;3.50;2.10;;;;;;;-128.00;-1.00;-1.00;18446;296;7506013;-36
2023/03/16 12:23:13;;;;;;;3.70;0.90;;;;;;;-128.00;-1.00;-1.00;18493;295;7505026;-35
2023/03/16 12:25:41;;;;;;;2.90;0.90;;;;;;;-128.00;-1.00;-1.00;18490;295;7504858;-31
2023/03/16 12:28:24;;;;;;;4.50;0.70;;;;;;;-128.00;-1.00;-1.00;18485;347;7504971;-34
2023/03/16 12:31:13;;;;;;;7.60;1.50;;;;;;;-128.00;-1.00;-1.00;18466;347;7505764;-31
2023/03/16 12:33:58;;;;;;;14.80;3.40;;;;;;;-128.00;-1.00;-1.00;18481;336;7504914;-31
2023/03/16 12:36:40;;;;;;;2.10;1.10;;;;;;;-128.00;-1.00;-1.00;18503;287;7505388;-34
2023/03/16 12:39:12;;;;;;;4.50;1.50;;;;;;;-128.00;-1.00;-1.00;18493;336;7505834;-34
2023/03/16 12:42:02;;;;;;;8.80;2.70;;;;;;;-128.00;-1.00;-1.00;18498;295;7505115;-34
2023/03/16 12:44:52;;;;;;;2.10;0.90;;;;;;;-128.00;-1.00;-1.00;18502;295;7505834;-31
2023/03/16 12:47:33;;;;;;;4.40;1.40;;;;;;;-128.00;-1.00;-1.00;18474;296;7504696;-31
2023/03/16 12:50:05;;;;;;;1.40;0.90;;;;;;;-128.00;-1.00;-1.00;18483;311;7504774;-36
2023/03/16 12:52:39;;;;;;;4.70;1.00;;;;;;;-128.00;-1.00;-1.00;18504;296;7504854;-35
2023/03/16 12:55:11;;;;;;;2.10;1.20;;;;;;;-128.00;-1.00;-1.00;18467;295;7505320;-31
2023/03/16 12:57:38;;;;;;;10.10;1.40;;;;;;;-128.00;-1.00;-1.00;18483;288;7505376;-32
2023/03/16 13:00:08;;;;;;;1.70;0.70;;;;;;;-128.00;-1.00;-1.00;18464;288;7505037;-35